Airfield :
LOGIN :

Register | Disclaimer

   EN    FR    IT 

 










Legend :    VFR   Marginal VFR   IFR   Intensive IFR   Very Intensive IFR
Visi :
Ceiling :
>= 8 km
>= 3000ft
5 to 8 km
1000 to 3000 ft
1500m to 5 km
500 to 1000 ft
800 to 1500m
200 to 500 ft
< 800m
< 200 ft
Symbols :   Thunderstorms  Fog  Heavy snow  Heavy precipitations  Wind > 20 kt
SIGMETs :     Misc.  Thunderstorms  Icing  Turbulence  Mountain Waves  Volcanic Ashes






- Airport Elevation : 97 ft
- IATA code : EBJ


EKEB - Esbjerg

CURRENT METAR :
  • 030750Z AUTO 22010KT 9999 NCD 21/13 Q1016

EXPIRED METARs :
  • 030720Z AUTO 19007KT 160V220 9999 NCD 20/15 Q1016
  • 030650Z AUTO 18006KT 9999 NCD 20/15 Q1016
  • 030620Z AUTO 16005KT 130V190 9999 NCD 19/15 Q1016
  • 030550Z AUTO 14006KT 9999 FEW085/// 18/15 Q1016
  • 030520Z AUTO 15006KT 9999 FEW140/// 17/14 Q1016

TAF TAF EKEB
Valid from the 03 at 06:00 until the 03 at 15:00 UTC


030501Z 0306/0315 14008KT 9999 FEW045
BECMG 0306/0309 24010KT
TEMPO 0306/0312 SHRA SCT040CB



MET'MAP, your aeronautical weather chart ! - Copyright ORBIFLY December 2007 - Disclaimer

ORBIFLY MET'MAP TEAM :

Programming & Development : Alexandra Zaïnal
Original concept : Baudouin d'Aumeries
Technical & hardware support : Manuel Goepfert
Assistance : Marc-Olivier Méhu




SOURCES & CREDITS :

   NOAA